sensor_id;sensor_type;location;lat;lon;timestamp;P1;durP1;ratioP1;P2;durP2;ratioP2
10309;SDS011;5200;43.236;27.986;2022-09-01T00:02:12;6.20;;;5.18;;
10309;SDS011;5200;43.236;27.986;2022-09-01T00:04:40;6.72;;;5.07;;
10309;SDS011;5200;43.236;27.986;2022-09-01T00:07:08;6.63;;;5.05;;
10309;SDS011;5200;43.236;27.986;2022-09-01T00:09:37;11.73;;;5.40;;
10309;SDS011;5200;43.236;27.986;2022-09-01T00:12:05;7.38;;;5.35;;
10309;SDS011;5200;43.236;27.986;2022-09-01T00:14:37;6.93;;;5.13;;
10309;SDS011;5200;43.236;27.986;2022-09-01T00:17:07;12.00;;;6.00;;
10309;SDS011;5200;43.236;27.986;2022-09-01T00:19:35;9.57;;;5.72;;
10309;SDS011;5200;43.236;27.986;2022-09-01T00:22:04;7.13;;;5.85;;
10309;SDS011;5200;43.236;27.986;2022-09-01T00:24:32;7.47;;;5.47;;
10309;SDS011;5200;43.236;27.986;2022-09-01T00:26:59;7.18;;;5.65;;
10309;SDS011;5200;43.236;27.986;2022-09-01T00:29:26;14.82;;;6.32;;
10309;SDS011;5200;43.236;27.986;2022-09-01T00:31:54;7.00;;;5.85;;
10309;SDS011;5200;43.236;27.986;2022-09-01T00:34:21;12.88;;;6.38;;
10309;SDS011;5200;43.236;27.986;2022-09-01T00:36:48;7.25;;;5.68;;
10309;SDS011;5200;43.236;27.986;2022-09-01T00:39:15;12.20;;;5.78;;
10309;SDS011;5200;43.236;27.986;2022-09-01T00:41:42;8.82;;;5.50;;
10309;SDS011;5200;43.236;27.986;2022-09-01T00:44:13;10.43;;;6.68;;
10309;SDS011;5200;43.236;27.986;2022-09-01T00:46:48;8.65;;;5.72;;
10309;SDS011;5200;43.236;27.986;2022-09-01T00:49:19;11.00;;;6.32;;
10309;SDS011;5200;43.236;27.986;2022-09-01T00:51:52;12.45;;;6.35;;
10309;SDS011;5200;43.236;27.986;2022-09-01T00:54:21;6.38;;;5.63;;
10309;SDS011;5200;43.236;27.986;2022-09-01T00:56:51;14.02;;;7.25;;
10309;SDS011;5200;43.236;27.986;2022-09-01T00:59:19;8.40;;;5.53;;
10309;SDS011;5200;43.236;27.986;2022-09-01T01:01:49;12.07;;;6.38;;
10309;SDS011;5200;43.236;27.986;2022-09-01T01:04:15;9.77;;;6.25;;
10309;SDS011;5200;43.236;27.986;2022-09-01T01:06:46;11.27;;;6.22;;
10309;SDS011;5200;43.236;27.986;2022-09-01T01:09:23;10.02;;;5.57;;
10309;SDS011;5200;43.236;27.986;2022-09-01T01:11:52;8.13;;;6.32;;
10309;SDS011;5200;43.236;27.986;2022-09-01T01:14:19;9.55;;;6.60;;
10309;SDS011;5200;43.236;27.986;2022-09-01T01:16:46;8.27;;;5.85;;
10309;SDS011;5200;43.236;27.986;2022-09-01T01:19:17;9.57;;;5.43;;
10309;SDS011;5200;43.236;27.986;2022-09-01T01:22:09;7.53;;;5.05;;
10309;SDS011;5200;43.236;27.986;2022-09-01T01:24:58;8.27;;;5.28;;
10309;SDS011;5200;43.236;27.986;2022-09-01T01:27:29;7.43;;;5.53;;
10309;SDS011;5200;43.236;27.986;2022-09-01T01:29:59;6.20;;;5.60;;
10309;SDS011;5200;43.236;27.986;2022-09-01T01:32:26;7.00;;;5.50;;
10309;SDS011;5200;43.236;27.986;2022-09-01T01:34:53;6.45;;;4.88;;
10309;SDS011;5200;43.236;27.986;2022-09-01T01:37:20;8.43;;;5.22;;
10309;SDS011;5200;43.236;27.986;2022-09-01T01:39:49;5.22;;;4.65;;
10309;SDS011;5200;43.236;27.986;2022-09-01T01:42:18;6.57;;;5.22;;
10309;SDS011;5200;43.236;27.986;2022-09-01T01:44:45;6.88;;;5.15;;
10309;SDS011;5200;43.236;27.986;2022-09-01T01:47:13;9.88;;;4.95;;
10309;SDS011;5200;43.236;27.986;2022-09-01T01:49:41;7.20;;;5.22;;
10309;SDS011;5200;43.236;27.986;2022-09-01T01:52:10;6.90;;;5.18;;
10309;SDS011;5200;43.236;27.986;2022-09-01T01:54:40;6.97;;;5.13;;
10309;SDS011;5200;43.236;27.986;2022-09-01T01:57:10;6.03;;;5.10;;
10309;SDS011;5200;43.236;27.986;2022-09-01T01:59:43;10.80;;;4.93;;
10309;SDS011;5200;43.236;27.986;2022-09-01T02:02:11;7.50;;;5.65;;
10309;SDS011;5200;43.236;27.986;2022-09-01T02:04:38;5.63;;;5.03;;
10309;SDS011;5200;43.236;27.986;2022-09-01T02:07:08;7.78;;;4.80;;
10309;SDS011;5200;43.236;27.986;2022-09-01T02:09:37;10.30;;;5.75;;
10309;SDS011;5200;43.236;27.986;2022-09-01T02:12:08;5.28;;;4.78;;
10309;SDS011;5200;43.236;27.986;2022-09-01T02:14:35;8.73;;;5.65;;
10309;SDS011;5200;43.236;27.986;2022-09-01T02:17:04;7.03;;;5.78;;
10309;SDS011;5200;43.236;27.986;2022-09-01T02:19:31;11.07;;;5.32;;
10309;SDS011;5200;43.236;27.986;2022-09-01T02:22:00;8.70;;;5.57;;
10309;SDS011;5200;43.236;27.986;2022-09-01T02:24:27;10.57;;;5.97;;
10309;SDS011;5200;43.236;27.986;2022-09-01T02:26:56;5.70;;;5.05;;
10309;SDS011;5200;43.236;27.986;2022-09-01T02:29:24;7.25;;;5.43;;
10309;SDS011;5200;43.236;27.986;2022-09-01T02:31:54;5.95;;;5.35;;
10309;SDS011;5200;43.236;27.986;2022-09-01T02:34:23;7.13;;;6.05;;
10309;SDS011;5200;43.236;27.986;2022-09-01T02:36:53;6.70;;;5.70;;
10309;SDS011;5200;43.236;27.986;2022-09-01T02:39:23;9.45;;;5.40;;
10309;SDS011;5200;43.236;27.986;2022-09-01T02:41:52;6.63;;;5.45;;
10309;SDS011;5200;43.236;27.986;2022-09-01T02:44:20;6.85;;;5.38;;
10309;SDS011;5200;43.236;27.986;2022-09-01T02:46:47;10.68;;;6.05;;
10309;SDS011;5200;43.236;27.986;2022-09-01T02:49:16;6.97;;;5.13;;
10309;SDS011;5200;43.236;27.986;2022-09-01T02:51:51;6.55;;;4.72;;
10309;SDS011;5200;43.236;27.986;2022-09-01T02:54:19;8.05;;;5.70;;
10309;SDS011;5200;43.236;27.986;2022-09-01T02:56:48;8.60;;;5.70;;
10309;SDS011;5200;43.236;27.986;2022-09-01T02:59:19;7.32;;;5.70;;
10309;SDS011;5200;43.236;27.986;2022-09-01T03:01:47;7.57;;;5.05;;
10309;SDS011;5200;43.236;27.986;2022-09-01T03:04:15;7.38;;;5.90;;
10309;SDS011;5200;43.236;27.986;2022-09-01T03:06:44;7.07;;;5.32;;
10309;SDS011;5200;43.236;27.986;2022-09-01T03:09:13;6.63;;;5.10;;
10309;SDS011;5200;43.236;27.986;2022-09-01T03:11:42;6.70;;;4.65;;
10309;SDS011;5200;43.236;27.986;2022-09-01T03:14:10;10.60;;;5.50;;
10309;SDS011;5200;43.236;27.986;2022-09-01T03:16:38;5.72;;;5.00;;
10309;SDS011;5200;43.236;27.986;2022-09-01T03:19:06;6.00;;;5.40;;
10309;SDS011;5200;43.236;27.986;2022-09-01T03:21:35;6.35;;;4.97;;
10309;SDS011;5200;43.236;27.986;2022-09-01T03:24:04;9.55;;;4.93;;
10309;SDS011;5200;43.236;27.986;2022-09-01T03:26:34;9.18;;;5.38;;
10309;SDS011;5200;43.236;27.986;2022-09-01T03:29:02;7.97;;;4.75;;
10309;SDS011;5200;43.236;27.986;2022-09-01T03:31:30;6.43;;;5.30;;
10309;SDS011;5200;43.236;27.986;2022-09-01T03:33:57;6.88;;;5.22;;
10309;SDS011;5200;43.236;27.986;2022-09-01T03:36:25;9.00;;;5.15;;
10309;SDS011;5200;43.236;27.986;2022-09-01T03:38:55;9.15;;;4.90;;
10309;SDS011;5200;43.236;27.986;2022-09-01T03:41:22;5.65;;;4.90;;
10309;SDS011;5200;43.236;27.986;2022-09-01T03:43:54;10.02;;;5.22;;
10309;SDS011;5200;43.236;27.986;2022-09-01T03:46:22;7.40;;;5.20;;
10309;SDS011;5200;43.236;27.986;2022-09-01T03:48:51;7.32;;;5.18;;
10309;SDS011;5200;43.236;27.986;2022-09-01T03:51:20;6.40;;;4.95;;
10309;SDS011;5200;43.236;27.986;2022-09-01T03:53:49;5.57;;;4.65;;
10309;SDS011;5200;43.236;27.986;2022-09-01T03:56:18;5.18;;;4.68;;
10309;SDS011;5200;43.236;27.986;2022-09-01T03:58:45;8.05;;;5.32;;
10309;SDS011;5200;43.236;27.986;2022-09-01T04:01:14;7.82;;;4.75;;
10309;SDS011;5200;43.236;27.986;2022-09-01T04:03:41;5.43;;;4.82;;
10309;SDS011;5200;43.236;27.986;2022-09-01T04:06:11;5.85;;;4.30;;
10309;SDS011;5200;43.236;27.986;2022-09-01T04:08:39;5.75;;;4.93;;
10309;SDS011;5200;43.236;27.986;2022-09-01T04:11:10;5.65;;;4.63;;
10309;SDS011;5200;43.236;27.986;2022-09-01T04:13:40;7.97;;;4.95;;
10309;SDS011;5200;43.236;27.986;2022-09-01T04:16:16;9.07;;;4.82;;
10309;SDS011;5200;43.236;27.986;2022-09-01T04:18:58;5.80;;;4.40;;
10309;SDS011;5200;43.236;27.986;2022-09-01T04:21:25;6.15;;;5.32;;
10309;SDS011;5200;43.236;27.986;2022-09-01T04:23:54;8.60;;;5.00;;
10309;SDS011;5200;43.236;27.986;2022-09-01T04:26:24;10.25;;;5.30;;
10309;SDS011;5200;43.236;27.986;2022-09-01T04:28:55;7.65;;;5.05;;
10309;SDS011;5200;43.236;27.986;2022-09-01T04:31:24;5.97;;;4.10;;
10309;SDS011;5200;43.236;27.986;2022-09-01T04:33:51;7.35;;;4.72;;
10309;SDS011;5200;43.236;27.986;2022-09-01T04:36:19;6.80;;;4.20;;
10309;SDS011;5200;43.236;27.986;2022-09-01T04:38:50;7.20;;;3.85;;
10309;SDS011;5200;43.236;27.986;2022-09-01T04:41:18;7.22;;;4.70;;
10309;SDS011;5200;43.236;27.986;2022-09-01T04:43:46;6.55;;;4.63;;
10309;SDS011;5200;43.236;27.986;2022-09-01T04:46:16;4.40;;;4.00;;
10309;SDS011;5200;43.236;27.986;2022-09-01T04:48:45;5.07;;;4.03;;
10309;SDS011;5200;43.236;27.986;2022-09-01T04:51:13;6.25;;;4.28;;
10309;SDS011;5200;43.236;27.986;2022-09-01T04:53:42;5.82;;;4.30;;
10309;SDS011;5200;43.236;27.986;2022-09-01T04:56:13;5.68;;;3.78;;
10309;SDS011;5200;43.236;27.986;2022-09-01T04:58:42;8.52;;;4.28;;
10309;SDS011;5200;43.236;27.986;2022-09-01T05:01:14;5.47;;;4.47;;
10309;SDS011;5200;43.236;27.986;2022-09-01T05:03:42;5.75;;;4.55;;
10309;SDS011;5200;43.236;27.986;2022-09-01T05:06:13;4.43;;;3.88;;
10309;SDS011;5200;43.236;27.986;2022-09-01T05:08:41;5.50;;;4.45;;
10309;SDS011;5200;43.236;27.986;2022-09-01T05:11:09;5.15;;;3.83;;
10309;SDS011;5200;43.236;27.986;2022-09-01T05:13:41;9.55;;;4.43;;
10309;SDS011;5200;43.236;27.986;2022-09-01T05:16:09;5.85;;;3.72;;
10309;SDS011;5200;43.236;27.986;2022-09-01T05:18:39;7.00;;;4.35;;
10309;SDS011;5200;43.236;27.986;2022-09-01T05:21:09;9.27;;;4.32;;
10309;SDS011;5200;43.236;27.986;2022-09-01T05:23:38;6.68;;;4.30;;
10309;SDS011;5200;43.236;27.986;2022-09-01T05:26:05;6.13;;;4.70;;
10309;SDS011;5200;43.236;27.986;2022-09-01T05:28:42;7.03;;;4.28;;
10309;SDS011;5200;43.236;27.986;2022-09-01T05:31:09;5.53;;;4.63;;
10309;SDS011;5200;43.236;27.986;2022-09-01T05:33:37;9.43;;;4.35;;
10309;SDS011;5200;43.236;27.986;2022-09-01T05:36:10;4.45;;;3.92;;
10309;SDS011;5200;43.236;27.986;2022-09-01T05:38:40;6.20;;;4.53;;
10309;SDS011;5200;43.236;27.986;2022-09-01T05:41:08;6.07;;;5.10;;
10309;SDS011;5200;43.236;27.986;2022-09-01T05:43:39;9.70;;;4.20;;
10309;SDS011;5200;43.236;27.986;2022-09-01T05:46:09;9.90;;;4.57;;
10309;SDS011;5200;43.236;27.986;2022-09-01T05:48:36;4.65;;;4.10;;
10309;SDS011;5200;43.236;27.986;2022-09-01T05:51:04;6.07;;;4.65;;
10309;SDS011;5200;43.236;27.986;2022-09-01T05:53:32;7.38;;;4.13;;
10309;SDS011;5200;43.236;27.986;2022-09-01T05:56:05;6.25;;;3.70;;
10309;SDS011;5200;43.236;27.986;2022-09-01T05:58:33;6.95;;;4.25;;
10309;SDS011;5200;43.236;27.986;2022-09-01T06:01:02;6.20;;;4.15;;
10309;SDS011;5200;43.236;27.986;2022-09-01T06:03:29;6.10;;;4.22;;
10309;SDS011;5200;43.236;27.986;2022-09-01T06:06:00;4.68;;;3.85;;
10309;SDS011;5200;43.236;27.986;2022-09-01T06:08:28;7.75;;;4.45;;
10309;SDS011;5200;43.236;27.986;2022-09-01T06:10:54;5.88;;;4.03;;
10309;SDS011;5200;43.236;27.986;2022-09-01T06:13:23;9.30;;;4.43;;
10309;SDS011;5200;43.236;27.986;2022-09-01T06:15:50;5.35;;;4.40;;
10309;SDS011;5200;43.236;27.986;2022-09-01T06:18:18;5.93;;;4.10;;
10309;SDS011;5200;43.236;27.986;2022-09-01T06:20:47;7.15;;;4.07;;
10309;SDS011;5200;43.236;27.986;2022-09-01T06:23:15;7.40;;;4.53;;
10309;SDS011;5200;43.236;27.986;2022-09-01T06:25:43;4.32;;;3.70;;
10309;SDS011;5200;43.236;27.986;2022-09-01T06:28:11;5.43;;;4.25;;
10309;SDS011;5200;43.236;27.986;2022-09-01T06:30:40;6.18;;;4.40;;
10309;SDS011;5200;43.236;27.986;2022-09-01T06:33:08;5.82;;;3.85;;
10309;SDS011;5200;43.236;27.986;2022-09-01T06:35:37;7.60;;;3.83;;
10309;SDS011;5200;43.236;27.986;2022-09-01T06:38:05;10.23;;;4.13;;
10309;SDS011;5200;43.236;27.986;2022-09-01T06:40:33;8.23;;;4.47;;
10309;SDS011;5200;43.236;27.986;2022-09-01T06:43:05;5.68;;;4.05;;
10309;SDS011;5200;43.236;27.986;2022-09-01T06:45:33;9.20;;;3.83;;
10309;SDS011;5200;43.236;27.986;2022-09-01T06:48:07;5.47;;;3.80;;
10309;SDS011;5200;43.236;27.986;2022-09-01T06:50:42;6.93;;;4.32;;
10309;SDS011;5200;43.236;27.986;2022-09-01T06:53:10;7.28;;;4.45;;
10309;SDS011;5200;43.236;27.986;2022-09-01T06:55:41;6.45;;;3.83;;
10309;SDS011;5200;43.236;27.986;2022-09-01T06:58:08;6.90;;;3.85;;
10309;SDS011;5200;43.236;27.986;2022-09-01T07:00:39;6.45;;;4.22;;
10309;SDS011;5200;43.236;27.986;2022-09-01T07:03:09;7.00;;;4.45;;
10309;SDS011;5200;43.236;27.986;2022-09-01T07:05:38;6.57;;;3.97;;
10309;SDS011;5200;43.236;27.986;2022-09-01T07:08:05;6.20;;;3.95;;
10309;SDS011;5200;43.236;27.986;2022-09-01T07:10:38;4.18;;;3.70;;
10309;SDS011;5200;43.236;27.986;2022-09-01T07:13:10;4.57;;;3.78;;
10309;SDS011;5200;43.236;27.986;2022-09-01T07:15:46;9.70;;;3.85;;
10309;SDS011;5200;43.236;27.986;2022-09-01T07:18:16;6.47;;;3.50;;
10309;SDS011;5200;43.236;27.986;2022-09-01T07:20:45;5.90;;;3.70;;
10309;SDS011;5200;43.236;27.986;2022-09-01T07:23:13;7.18;;;4.03;;
10309;SDS011;5200;43.236;27.986;2022-09-01T07:25:42;6.03;;;3.97;;
10309;SDS011;5200;43.236;27.986;2022-09-01T07:28:12;7.15;;;3.70;;
10309;SDS011;5200;43.236;27.986;2022-09-01T07:30:41;4.78;;;4.20;;
10309;SDS011;5200;43.236;27.986;2022-09-01T07:33:09;5.45;;;4.18;;
10309;SDS011;5200;43.236;27.986;2022-09-01T07:35:39;6.32;;;4.07;;
10309;SDS011;5200;43.236;27.986;2022-09-01T07:38:07;6.43;;;4.22;;
10309;SDS011;5200;43.236;27.986;2022-09-01T07:40:35;6.68;;;4.13;;
10309;SDS011;5200;43.236;27.986;2022-09-01T07:43:04;5.90;;;4.03;;
10309;SDS011;5200;43.236;27.986;2022-09-01T07:45:34;8.23;;;4.00;;
10309;SDS011;5200;43.236;27.986;2022-09-01T07:48:03;3.95;;;3.50;;
10309;SDS011;5200;43.236;27.986;2022-09-01T07:50:32;7.50;;;3.72;;
10309;SDS011;5200;43.236;27.986;2022-09-01T07:53:02;11.52;;;4.30;;
10309;SDS011;5200;43.236;27.986;2022-09-01T07:55:29;6.97;;;4.35;;
10309;SDS011;5200;43.236;27.986;2022-09-01T07:57:56;8.07;;;4.13;;
10309;SDS011;5200;43.236;27.986;2022-09-01T08:00:23;6.40;;;4.15;;
10309;SDS011;5200;43.236;27.986;2022-09-01T08:02:52;9.55;;;4.50;;
10309;SDS011;5200;43.236;27.986;2022-09-01T08:05:19;6.57;;;4.15;;
10309;SDS011;5200;43.236;27.986;2022-09-01T08:07:51;5.35;;;4.32;;
10309;SDS011;5200;43.236;27.986;2022-09-01T08:10:19;5.68;;;4.20;;
10309;SDS011;5200;43.236;27.986;2022-09-01T08:12:46;4.57;;;4.15;;
10309;SDS011;5200;43.236;27.986;2022-09-01T08:15:13;8.50;;;3.95;;
10309;SDS011;5200;43.236;27.986;2022-09-01T08:17:42;6.90;;;4.60;;
10309;SDS011;5200;43.236;27.986;2022-09-01T08:20:10;5.90;;;4.25;;
10309;SDS011;5200;43.236;27.986;2022-09-01T08:22:37;4.97;;;4.45;;
10309;SDS011;5200;43.236;27.986;2022-09-01T08:25:04;7.45;;;4.78;;
10309;SDS011;5200;43.236;27.986;2022-09-01T08:27:34;10.18;;;4.53;;
10309;SDS011;5200;43.236;27.986;2022-09-01T08:30:03;8.57;;;4.22;;
10309;SDS011;5200;43.236;27.986;2022-09-01T08:32:32;7.35;;;4.10;;
10309;SDS011;5200;43.236;27.986;2022-09-01T08:34:59;7.47;;;4.47;;
10309;SDS011;5200;43.236;27.986;2022-09-01T08:37:26;6.22;;;4.25;;
10309;SDS011;5200;43.236;27.986;2022-09-01T08:39:53;8.18;;;4.03;;
10309;SDS011;5200;43.236;27.986;2022-09-01T08:42:23;6.45;;;4.03;;
10309;SDS011;5200;43.236;27.986;2022-09-01T08:45:04;6.07;;;4.40;;
10309;SDS011;5200;43.236;27.986;2022-09-01T08:47:37;5.15;;;4.20;;
10309;SDS011;5200;43.236;27.986;2022-09-01T08:50:05;6.85;;;4.30;;
10309;SDS011;5200;43.236;27.986;2022-09-01T08:52:34;7.43;;;4.53;;
10309;SDS011;5200;43.236;27.986;2022-09-01T08:55:05;6.25;;;4.60;;
10309;SDS011;5200;43.236;27.986;2022-09-01T08:57:39;5.55;;;4.50;;
10309;SDS011;5200;43.236;27.986;2022-09-01T09:00:11;9.40;;;4.95;;
10309;SDS011;5200;43.236;27.986;2022-09-01T09:02:46;9.98;;;4.47;;
10309;SDS011;5200;43.236;27.986;2022-09-01T09:05:29;7.55;;;5.28;;
10309;SDS011;5200;43.236;27.986;2022-09-01T09:08:07;6.30;;;4.15;;
10309;SDS011;5200;43.236;27.986;2022-09-01T09:10:50;6.15;;;4.25;;
10309;SDS011;5200;43.236;27.986;2022-09-01T09:13:24;4.45;;;3.97;;
10309;SDS011;5200;43.236;27.986;2022-09-01T09:16:02;5.22;;;4.53;;
10309;SDS011;5200;43.236;27.986;2022-09-01T09:18:36;12.77;;;5.10;;
10309;SDS011;5200;43.236;27.986;2022-09-01T09:21:10;8.60;;;4.45;;
10309;SDS011;5200;43.236;27.986;2022-09-01T09:23:42;12.50;;;4.50;;
10309;SDS011;5200;43.236;27.986;2022-09-01T09:26:12;5.63;;;3.88;;
10309;SDS011;5200;43.236;27.986;2022-09-01T09:28:39;7.70;;;4.78;;
10309;SDS011;5200;43.236;27.986;2022-09-01T09:31:31;9.90;;;4.30;;
10309;SDS011;5200;43.236;27.986;2022-09-01T09:33:59;7.63;;;4.80;;
10309;SDS011;5200;43.236;27.986;2022-09-01T09:36:31;5.78;;;4.57;;
10309;SDS011;5200;43.236;27.986;2022-09-01T09:39:04;7.95;;;5.00;;
10309;SDS011;5200;43.236;27.986;2022-09-01T09:41:36;5.25;;;4.35;;
10309;SDS011;5200;43.236;27.986;2022-09-01T09:44:06;7.78;;;4.53;;
10309;SDS011;5200;43.236;27.986;2022-09-01T09:46:45;7.50;;;4.40;;
10309;SDS011;5200;43.236;27.986;2022-09-01T09:49:17;8.73;;;4.05;;
10309;SDS011;5200;43.236;27.986;2022-09-01T09:51:49;6.53;;;4.57;;
10309;SDS011;5200;43.236;27.986;2022-09-01T09:54:19;5.35;;;4.65;;
10309;SDS011;5200;43.236;27.986;2022-09-01T09:57:00;11.93;;;4.68;;
10309;SDS011;5200;43.236;27.986;2022-09-01T09:59:31;7.28;;;4.57;;
10309;SDS011;5200;43.236;27.986;2022-09-01T10:02:13;6.10;;;4.68;;
10309;SDS011;5200;43.236;27.986;2022-09-01T10:04:49;7.05;;;4.45;;
10309;SDS011;5200;43.236;27.986;2022-09-01T10:07:28;8.10;;;4.72;;
10309;SDS011;5200;43.236;27.986;2022-09-01T10:09:57;4.88;;;4.40;;
10309;SDS011;5200;43.236;27.986;2022-09-01T10:12:27;5.85;;;3.88;;
10309;SDS011;5200;43.236;27.986;2022-09-01T10:14:56;8.48;;;4.90;;
10309;SDS011;5200;43.236;27.986;2022-09-01T10:17:29;8.63;;;4.57;;
10309;SDS011;5200;43.236;27.986;2022-09-01T10:20:00;6.28;;;4.65;;
10309;SDS011;5200;43.236;27.986;2022-09-01T10:22:31;7.97;;;4.40;;
10309;SDS011;5200;43.236;27.986;2022-09-01T10:25:00;7.05;;;4.63;;
10309;SDS011;5200;43.236;27.986;2022-09-01T10:27:28;6.93;;;4.70;;
10309;SDS011;5200;43.236;27.986;2022-09-01T10:30:03;7.72;;;4.63;;
10309;SDS011;5200;43.236;27.986;2022-09-01T10:32:35;6.13;;;4.85;;
10309;SDS011;5200;43.236;27.986;2022-09-01T10:35:09;7.68;;;5.13;;
10309;SDS011;5200;43.236;27.986;2022-09-01T10:37:40;10.45;;;4.78;;
10309;SDS011;5200;43.236;27.986;2022-09-01T10:40:08;6.05;;;4.65;;
10309;SDS011;5200;43.236;27.986;2022-09-01T10:42:38;7.05;;;4.63;;
10309;SDS011;5200;43.236;27.986;2022-09-01T10:45:15;5.13;;;4.28;;
10309;SDS011;5200;43.236;27.986;2022-09-01T10:47:48;6.82;;;4.72;;
10309;SDS011;5200;43.236;27.986;2022-09-01T10:50:23;7.35;;;4.90;;
10309;SDS011;5200;43.236;27.986;2022-09-01T10:52:53;9.02;;;5.10;;
10309;SDS011;5200;43.236;27.986;2022-09-01T10:55:28;7.05;;;4.45;;
10309;SDS011;5200;43.236;27.986;2022-09-01T11:01:06;6.95;;;5.25;;
10309;SDS011;5200;43.236;27.986;2022-09-01T11:09:31;11.18;;;5.18;;
10309;SDS011;5200;43.236;27.986;2022-09-01T11:15:02;13.48;;;5.45;;
10309;SDS011;5200;43.236;27.986;2022-09-01T11:17:31;5.80;;;4.50;;
10309;SDS011;5200;43.236;27.986;2022-09-01T11:20:04;5.28;;;4.28;;
10309;SDS011;5200;43.236;27.986;2022-09-01T11:22:35;6.22;;;4.32;;
10309;SDS011;5200;43.236;27.986;2022-09-01T11:28:06;7.93;;;4.80;;
10309;SDS011;5200;43.236;27.986;2022-09-01T11:30:42;13.10;;;5.35;;
10309;SDS011;5200;43.236;27.986;2022-09-01T11:36:15;6.50;;;5.03;;
10309;SDS011;5200;43.236;27.986;2022-09-01T11:38:51;10.52;;;5.47;;
10309;SDS011;5200;43.236;27.986;2022-09-01T11:41:23;8.38;;;5.50;;
10309;SDS011;5200;43.236;27.986;2022-09-01T11:43:58;11.57;;;5.30;;
10309;SDS011;5200;43.236;27.986;2022-09-01T11:46:27;7.25;;;5.00;;
10309;SDS011;5200;43.236;27.986;2022-09-01T11:49:00;14.52;;;5.90;;
10309;SDS011;5200;43.236;27.986;2022-09-01T11:51:41;7.68;;;5.03;;
10309;SDS011;5200;43.236;27.986;2022-09-01T11:54:11;8.68;;;5.60;;
10309;SDS011;5200;43.236;27.986;2022-09-01T11:56:39;8.55;;;4.82;;
10309;SDS011;5200;43.236;27.986;2022-09-01T11:59:06;8.90;;;5.60;;
10309;SDS011;5200;43.236;27.986;2022-09-01T12:01:34;10.30;;;4.90;;
10309;SDS011;5200;43.236;27.986;2022-09-01T12:04:18;11.27;;;5.53;;
10309;SDS011;5200;43.236;27.986;2022-09-01T12:06:52;8.65;;;5.30;;
10309;SDS011;5200;43.236;27.986;2022-09-01T12:09:30;14.38;;;6.18;;
10309;SDS011;5200;43.236;27.986;2022-09-01T12:11:58;10.45;;;5.75;;
10309;SDS011;5200;43.236;27.986;2022-09-01T12:14:25;12.50;;;5.53;;
10309;SDS011;5200;43.236;27.986;2022-09-01T12:16:56;9.00;;;5.00;;
10309;SDS011;5200;43.236;27.986;2022-09-01T12:19:25;14.38;;;5.50;;
10309;SDS011;5200;43.236;27.986;2022-09-01T12:21:59;13.50;;;5.05;;
10309;SDS011;5200;43.236;27.986;2022-09-01T12:24:30;10.40;;;6.35;;
10309;SDS011;5200;43.236;27.986;2022-09-01T12:26:59;15.48;;;6.28;;
10309;SDS011;5200;43.236;27.986;2022-09-01T12:29:27;12.80;;;6.05;;
10309;SDS011;5200;43.236;27.986;2022-09-01T12:31:56;13.77;;;6.25;;
10309;SDS011;5200;43.236;27.986;2022-09-01T12:34:25;12.95;;;5.57;;
10309;SDS011;5200;43.236;27.986;2022-09-01T12:37:06;17.35;;;5.97;;
10309;SDS011;5200;43.236;27.986;2022-09-01T12:39:35;9.32;;;5.78;;
10309;SDS011;5200;43.236;27.986;2022-09-01T12:42:04;11.48;;;4.82;;
10309;SDS011;5200;43.236;27.986;2022-09-01T12:44:47;12.45;;;6.15;;
10309;SDS011;5200;43.236;27.986;2022-09-01T12:53:18;9.45;;;5.80;;
10309;SDS011;5200;43.236;27.986;2022-09-01T12:55:53;16.98;;;5.85;;
10309;SDS011;5200;43.236;27.986;2022-09-01T12:58:24;9.13;;;5.10;;
10309;SDS011;5200;43.236;27.986;2022-09-01T13:00:54;12.88;;;5.95;;
10309;SDS011;5200;43.236;27.986;2022-09-01T13:03:23;8.02;;;5.40;;
10309;SDS011;5200;43.236;27.986;2022-09-01T13:05:53;6.10;;;5.00;;
10309;SDS011;5200;43.236;27.986;2022-09-01T13:08:22;12.45;;;5.15;;
10309;SDS011;5200;43.236;27.986;2022-09-01T13:10:53;8.32;;;5.63;;
10309;SDS011;5200;43.236;27.986;2022-09-01T13:13:22;8.80;;;6.25;;
10309;SDS011;5200;43.236;27.986;2022-09-01T13:15:51;9.55;;;6.10;;
10309;SDS011;5200;43.236;27.986;2022-09-01T13:18:22;12.55;;;5.38;;
10309;SDS011;5200;43.236;27.986;2022-09-01T13:20:50;9.93;;;5.80;;
10309;SDS011;5200;43.236;27.986;2022-09-01T13:23:18;11.55;;;5.18;;
10309;SDS011;5200;43.236;27.986;2022-09-01T13:25:47;11.52;;;5.82;;
10309;SDS011;5200;43.236;27.986;2022-09-01T13:28:16;7.63;;;4.65;;
10309;SDS011;5200;43.236;27.986;2022-09-01T13:30:44;6.63;;;4.95;;
10309;SDS011;5200;43.236;27.986;2022-09-01T13:33:17;13.77;;;5.25;;
10309;SDS011;5200;43.236;27.986;2022-09-01T13:35:44;13.25;;;5.72;;
10309;SDS011;5200;43.236;27.986;2022-09-01T13:38:11;7.13;;;5.20;;
10309;SDS011;5200;43.236;27.986;2022-09-01T13:40:40;12.63;;;5.80;;
10309;SDS011;5200;43.236;27.986;2022-09-01T13:43:08;11.45;;;5.45;;
10309;SDS011;5200;43.236;27.986;2022-09-01T13:45:35;7.07;;;4.60;;
10309;SDS011;5200;43.236;27.986;2022-09-01T13:48:05;7.65;;;4.95;;
10309;SDS011;5200;43.236;27.986;2022-09-01T13:50:32;7.18;;;5.22;;
10309;SDS011;5200;43.236;27.986;2022-09-01T13:52:59;9.40;;;5.20;;
10309;SDS011;5200;43.236;27.986;2022-09-01T13:55:26;10.50;;;5.30;;
10309;SDS011;5200;43.236;27.986;2022-09-01T13:57:54;8.43;;;5.28;;
10309;SDS011;5200;43.236;27.986;2022-09-01T14:00:25;9.95;;;5.22;;
10309;SDS011;5200;43.236;27.986;2022-09-01T14:02:54;8.82;;;4.78;;
10309;SDS011;5200;43.236;27.986;2022-09-01T14:05:24;8.10;;;4.93;;
10309;SDS011;5200;43.236;27.986;2022-09-01T14:07:52;8.07;;;4.95;;
10309;SDS011;5200;43.236;27.986;2022-09-01T14:10:21;8.35;;;5.32;;
10309;SDS011;5200;43.236;27.986;2022-09-01T14:12:48;7.20;;;5.10;;
10309;SDS011;5200;43.236;27.986;2022-09-01T14:15:17;7.50;;;4.82;;
10309;SDS011;5200;43.236;27.986;2022-09-01T14:17:47;7.03;;;5.22;;
10309;SDS011;5200;43.236;27.986;2022-09-01T14:20:18;6.25;;;5.03;;
10309;SDS011;5200;43.236;27.986;2022-09-01T14:22:46;6.57;;;5.07;;
10309;SDS011;5200;43.236;27.986;2022-09-01T14:25:14;12.68;;;5.63;;
10309;SDS011;5200;43.236;27.986;2022-09-01T14:27:43;15.65;;;5.15;;
10309;SDS011;5200;43.236;27.986;2022-09-01T14:30:14;8.25;;;4.82;;
10309;SDS011;5200;43.236;27.986;2022-09-01T14:32:43;9.82;;;4.90;;
10309;SDS011;5200;43.236;27.986;2022-09-01T14:35:13;5.63;;;4.75;;
10309;SDS011;5200;43.236;27.986;2022-09-01T14:37:41;7.80;;;5.35;;
10309;SDS011;5200;43.236;27.986;2022-09-01T14:40:10;6.88;;;4.95;;
10309;SDS011;5200;43.236;27.986;2022-09-01T14:42:39;8.05;;;5.10;;
10309;SDS011;5200;43.236;27.986;2022-09-01T14:45:08;8.93;;;4.82;;
10309;SDS011;5200;43.236;27.986;2022-09-01T14:47:36;6.30;;;4.97;;
10309;SDS011;5200;43.236;27.986;2022-09-01T14:50:04;9.43;;;5.07;;
10309;SDS011;5200;43.236;27.986;2022-09-01T14:52:33;9.20;;;4.72;;
10309;SDS011;5200;43.236;27.986;2022-09-01T14:55:01;8.18;;;5.25;;
10309;SDS011;5200;43.236;27.986;2022-09-01T14:57:29;7.78;;;4.75;;
10309;SDS011;5200;43.236;27.986;2022-09-01T14:59:56;8.05;;;5.00;;
10309;SDS011;5200;43.236;27.986;2022-09-01T15:02:23;7.63;;;4.78;;
10309;SDS011;5200;43.236;27.986;2022-09-01T15:04:53;5.90;;;4.93;;
10309;SDS011;5200;43.236;27.986;2022-09-01T15:07:20;5.53;;;4.50;;
10309;SDS011;5200;43.236;27.986;2022-09-01T15:09:48;7.38;;;5.40;;
10309;SDS011;5200;43.236;27.986;2022-09-01T15:12:15;7.82;;;4.80;;
10309;SDS011;5200;43.236;27.986;2022-09-01T15:14:42;9.73;;;4.57;;
10309;SDS011;5200;43.236;27.986;2022-09-01T15:17:09;5.43;;;4.22;;
10309;SDS011;5200;43.236;27.986;2022-09-01T15:19:36;7.82;;;4.60;;
10309;SDS011;5200;43.236;27.986;2022-09-01T15:22:03;8.20;;;4.93;;
10309;SDS011;5200;43.236;27.986;2022-09-01T15:24:31;6.13;;;4.78;;
10309;SDS011;5200;43.236;27.986;2022-09-01T15:26:59;6.28;;;4.43;;